createdAt,value
2023-02-13T00:02:14.052Z,27.30
2023-02-13T00:07:13.257Z,28.60
2023-02-13T00:12:14.410Z,25.90
2023-02-13T00:17:15.518Z,37.80
2023-02-13T00:22:16.640Z,41.70
2023-02-13T00:28:01.737Z,48.60
2023-02-13T00:32:20.138Z,39.30
2023-02-13T00:37:19.298Z,43.80
2023-02-13T00:42:21.403Z,38.90
2023-02-13T00:47:20.560Z,37.90
2023-02-13T00:52:21.788Z,41.80
2023-02-13T00:57:22.926Z,40.30
2023-02-13T01:02:25.202Z,30.00
2023-02-13T01:07:24.339Z,33.90
2023-02-13T01:12:25.465Z,27.90
2023-02-13T01:17:26.652Z,26.10
2023-02-13T01:22:27.819Z,26.30
2023-02-13T01:27:28.959Z,23.30
2023-02-13T01:32:30.121Z,25.50
2023-02-13T01:37:31.238Z,24.30
2023-02-13T01:42:32.362Z,24.80
2023-02-13T01:47:33.535Z,24.00
2023-02-13T01:52:34.650Z,23.30
2023-02-13T01:57:35.841Z,23.70
2023-02-13T02:02:38.090Z,22.70
2023-02-13T02:07:37.225Z,24.50
2023-02-13T02:12:38.337Z,23.30
2023-02-13T02:17:39.429Z,22.50
2023-02-13T02:22:41.588Z,21.50
2023-02-13T02:27:41.795Z,20.30
2023-02-13T02:32:40.879Z,20.70
2023-02-13T02:37:43.002Z,20.20
2023-02-13T02:42:42.139Z,18.90
2023-02-13T02:47:43.246Z,18.00
2023-02-13T02:52:44.325Z,17.80
2023-02-13T02:57:45.524Z,18.20
2023-02-13T03:02:46.767Z,17.70
2023-02-13T03:07:48.857Z,24.30
2023-02-13T03:12:48.956Z,29.80
2023-02-13T03:17:49.078Z,24.60
2023-02-13T03:22:48.172Z,26.70
2023-02-13T03:27:50.346Z,23.20
2023-02-13T03:32:49.468Z,22.30
2023-02-13T03:37:50.599Z,24.30
2023-02-13T03:42:52.725Z,24.40
2023-02-13T03:47:52.866Z,21.00
2023-02-13T03:52:53.991Z,22.60
2023-02-13T03:57:53.100Z,22.30
2023-02-13T04:02:54.199Z,21.60
2023-02-13T04:07:55.623Z,21.70
2023-02-13T04:12:58.727Z,21.80
2023-02-13T04:17:57.864Z,23.20
2023-02-13T04:22:59.960Z,23.70
2023-02-13T04:28:00.117Z,24.90
2023-02-13T04:32:59.302Z,23.10
2023-02-13T04:38:01.372Z,21.60
2023-02-13T04:43:02.513Z,24.90
2023-02-13T04:48:01.618Z,22.20
2023-02-13T04:53:03.774Z,24.40
2023-02-13T04:58:03.927Z,21.60
2023-02-13T05:03:03.019Z,25.40
2023-02-13T05:08:08.021Z,25.10
2023-02-13T05:13:06.195Z,25.40
2023-02-13T05:18:05.394Z,26.50
2023-02-13T05:23:07.569Z,26.40
2023-02-13T05:28:07.825Z,24.50
2023-02-13T05:33:07.015Z,26.80
2023-02-13T05:38:08.163Z,24.10
2023-02-13T05:43:09.327Z,25.50
2023-02-13T05:48:11.421Z,28.20
2023-02-13T05:53:12.552Z,27.60
2023-02-13T05:58:15.563Z,27.90
2023-02-13T06:03:12.680Z,31.70
2023-02-13T06:08:14.790Z,28.30
2023-02-13T06:13:13.920Z,28.20
2023-02-13T06:18:16.054Z,28.50
2023-02-13T06:23:15.154Z,28.10
2023-02-13T06:28:18.366Z,27.60
2023-02-13T06:33:17.503Z,28.80
2023-02-13T06:38:19.617Z,26.10
2023-02-13T06:43:18.768Z,27.10
2023-02-13T06:48:19.879Z,27.70
2023-02-13T06:53:22.979Z,21.90
2023-02-13T06:58:22.110Z,22.20
2023-02-13T07:03:23.240Z,21.40
2023-02-13T07:08:24.344Z,22.00
2023-02-13T07:13:28.433Z,24.60
2023-02-13T07:18:26.544Z,23.00
2023-02-13T07:23:26.757Z,24.00
2023-02-13T07:28:26.982Z,25.10
2023-02-13T07:33:26.141Z,29.10
2023-02-13T07:38:28.243Z,29.40
2023-02-13T07:43:27.362Z,28.60
2023-02-13T07:48:28.546Z,30.60
2023-02-13T07:53:29.677Z,27.20
2023-02-13T07:58:33.805Z,26.30
2023-02-13T08:03:32.928Z,24.30
2023-02-13T08:08:32.049Z,25.90
2023-02-13T08:13:33.154Z,25.70
2023-02-13T08:18:35.278Z,27.20
2023-02-13T08:23:35.552Z,26.70
2023-02-13T08:28:34.704Z,25.90
2023-02-13T08:33:35.901Z,28.10
2023-02-13T08:38:38.068Z,26.90
2023-02-13T08:43:37.211Z,27.30
2023-02-13T08:48:39.374Z,24.20
2023-02-13T08:53:39.475Z,23.70
2023-02-13T08:58:41.598Z,25.20
2023-02-13T09:03:39.733Z,27.50
2023-02-13T09:08:38.882Z,25.30
2023-02-13T09:13:40.004Z,24.50
2023-02-13T09:18:42.141Z,25.40
2023-02-13T09:23:41.293Z,27.90
2023-02-13T09:28:44.539Z,23.80
2023-02-13T09:33:43.802Z,25.30
2023-02-13T09:38:45.936Z,24.60
2023-02-13T09:43:45.080Z,25.10
2023-02-13T09:48:46.173Z,24.70
2023-02-13T09:53:48.326Z,25.90
2023-02-13T09:58:47.482Z,24.90
2023-02-13T10:03:48.559Z,24.30
2023-02-13T10:08:49.657Z,26.60
2023-02-13T10:13:52.841Z,25.90
2023-02-13T10:18:51.956Z,23.30
2023-02-13T10:23:54.068Z,24.60
2023-02-13T10:28:54.239Z,23.00
2023-02-13T10:33:53.404Z,27.80
2023-02-13T10:38:55.551Z,23.40
2023-02-13T10:43:55.648Z,27.30
2023-02-13T10:48:56.801Z,22.30
2023-02-13T10:53:55.944Z,23.80
2023-02-13T10:58:58.054Z,25.20
2023-02-13T11:03:59.177Z,23.90
2023-02-13T11:08:58.290Z,22.60
2023-02-13T11:14:00.404Z,25.10
2023-02-13T11:19:00.596Z,22.70
2023-02-13T11:23:59.673Z,23.00
2023-02-13T11:29:01.809Z,24.70
2023-02-13T11:34:01.917Z,23.30
2023-02-13T11:39:02.043Z,24.60
2023-02-13T11:44:02.217Z,26.70
2023-02-13T11:49:02.445Z,23.20
2023-02-13T11:54:01.529Z,23.80
2023-02-13T11:59:02.718Z,23.10
2023-02-13T12:04:03.950Z,21.20
2023-02-13T12:09:05.084Z,20.90
2023-02-13T12:14:08.184Z,22.20
2023-02-13T12:19:08.318Z,21.50
2023-02-13T12:24:08.457Z,22.00
2023-02-13T12:29:07.626Z,22.50
2023-02-13T12:34:08.804Z,21.70
2023-02-13T12:39:11.227Z,20.90
2023-02-13T12:44:10.361Z,21.40
2023-02-13T12:49:11.472Z,21.40
2023-02-13T12:54:12.580Z,19.40
2023-02-13T12:59:13.734Z,20.70
2023-02-13T13:04:16.871Z,19.60
2023-02-13T13:09:16.996Z,19.80
2023-02-13T13:14:19.122Z,23.80
2023-02-13T13:19:16.290Z,23.40
2023-02-13T13:24:19.404Z,21.70
2023-02-13T13:29:18.498Z,25.50
2023-02-13T13:34:19.610Z,24.70
2023-02-13T13:39:20.729Z,25.20
2023-02-13T13:44:23.858Z,28.70
2023-02-13T13:49:24.979Z,25.50
2023-02-13T13:54:24.108Z,26.20
2023-02-13T13:59:25.232Z,26.00
2023-02-13T14:04:26.376Z,27.10
2023-02-13T14:09:27.524Z,26.00
2023-02-13T14:14:30.764Z,28.00
2023-02-13T14:19:30.899Z,36.20
2023-02-13T14:24:31.024Z,27.10
2023-02-13T14:29:30.143Z,26.90
2023-02-13T14:34:32.247Z,32.20
2023-02-13T14:39:32.387Z,26.20
2023-02-13T14:44:33.526Z,26.40
2023-02-13T14:49:33.619Z,26.50
2023-02-13T14:54:32.758Z,26.60
2023-02-13T14:59:33.872Z,27.30
2023-02-13T15:04:37.095Z,27.90
2023-02-13T15:09:36.329Z,25.40
2023-02-13T15:14:38.455Z,27.50
2023-02-13T15:19:38.602Z,27.50
2023-02-13T15:24:38.787Z,27.80
2023-02-13T15:29:49.530Z,26.90
2023-02-13T15:34:39.746Z,29.30
2023-02-13T15:39:39.114Z,27.30
2023-02-13T15:44:40.471Z,28.70
2023-02-13T15:49:43.746Z,31.10
2023-02-13T15:54:42.857Z,29.50
2023-02-13T15:59:45.235Z,31.50
2023-02-13T16:04:44.546Z,32.60
2023-02-13T16:09:45.760Z,28.40
2023-02-13T16:15:31.846Z,33.30
2023-02-13T16:19:48.181Z,32.40
2023-02-13T16:25:36.206Z,30.50
2023-02-13T16:29:47.397Z,30.50
2023-02-13T16:34:49.910Z,31.20
2023-02-13T16:39:50.151Z,33.80
2023-02-13T16:44:49.304Z,31.90
2023-02-13T16:49:50.448Z,33.50
2023-02-13T16:54:51.646Z,35.00
2023-02-13T16:59:54.071Z,31.40
2023-02-13T17:04:54.457Z,33.10
2023-02-13T17:09:54.707Z,31.00
2023-02-13T17:14:55.986Z,30.00
2023-02-13T17:19:56.223Z,31.40
2023-02-13T17:24:55.625Z,32.90
2023-02-13T17:29:54.922Z,36.40
2023-02-13T17:34:56.260Z,34.90
2023-02-13T17:39:57.624Z,33.00
2023-02-13T17:45:00.803Z,39.50
2023-02-13T17:50:09.596Z,38.30
2023-02-13T17:55:02.553Z,39.10
2023-02-13T18:00:02.060Z,37.70
2023-02-13T18:05:01.285Z,33.80
2023-02-13T18:10:03.636Z,38.80
2023-02-13T18:15:04.241Z,40.30
2023-02-13T18:20:03.748Z,37.60
2023-02-13T18:25:03.278Z,46.80
2023-02-13T18:30:02.827Z,48.00
2023-02-13T18:35:02.155Z,45.00
2023-02-13T18:40:03.622Z,41.30
2023-02-13T18:45:03.648Z,48.60
2023-02-13T18:50:03.112Z,46.80
2023-02-13T18:55:02.406Z,45.30
2023-02-13T19:00:03.877Z,39.60
2023-02-13T19:05:03.103Z,55.40
2023-02-13T19:10:05.522Z,61.10
2023-02-13T19:15:05.057Z,53.10
2023-02-13T19:20:05.033Z,39.70
2023-02-13T19:25:05.464Z,43.60
2023-02-13T19:30:04.822Z,47.00
2023-02-13T19:35:06.427Z,51.00
2023-02-13T19:40:05.979Z,51.10
2023-02-13T19:45:05.769Z,42.90
2023-02-13T19:50:05.399Z,56.20
2023-02-13T19:55:04.996Z,43.50
2023-02-13T20:00:04.575Z,60.70
2023-02-13T20:05:04.170Z,59.80
2023-02-13T20:10:03.720Z,83.30
2023-02-13T20:15:03.289Z,57.40
2023-02-13T20:20:02.884Z,48.10
2023-02-13T20:25:03.301Z,44.90
2023-02-13T20:30:07.280Z,40.00
2023-02-13T20:35:04.082Z,47.60
2023-02-13T20:40:03.741Z,48.70
2023-02-13T20:45:03.101Z,48.60
2023-02-13T20:50:05.108Z,49.40
2023-02-13T20:55:06.700Z,48.10
2023-02-13T21:00:12.207Z,52.20
2023-02-13T21:05:03.508Z,58.40
2023-02-13T21:10:04.947Z,47.70
2023-02-13T21:15:04.549Z,58.00
2023-02-13T21:20:04.179Z,54.00
2023-02-13T21:25:04.415Z,72.00
2023-02-13T21:30:03.872Z,60.90
2023-02-13T21:35:03.252Z,72.50
2023-02-13T21:40:04.501Z,62.20
2023-02-13T21:45:06.504Z,55.50
2023-02-13T21:50:06.736Z,56.10
2023-02-13T21:55:07.937Z,56.50
2023-02-13T22:00:05.964Z,58.50
2023-02-13T22:05:07.144Z,52.10
2023-02-13T22:10:08.285Z,47.20
2023-02-13T22:15:09.532Z,50.70
2023-02-13T22:20:10.701Z,53.80
2023-02-13T22:25:11.896Z,52.30
2023-02-13T22:30:13.140Z,49.10
2023-02-13T22:35:14.366Z,51.10
2023-02-13T22:40:15.497Z,50.80
2023-02-13T22:45:16.602Z,51.70
2023-02-13T22:50:18.770Z,51.10
2023-02-13T22:55:17.929Z,47.90
2023-02-13T23:00:19.079Z,65.20
2023-02-13T23:05:20.297Z,49.50
2023-02-13T23:10:23.449Z,46.40
2023-02-13T23:15:23.593Z,47.90
2023-02-13T23:20:22.745Z,42.00
2023-02-13T23:25:23.904Z,45.50
2023-02-13T23:30:26.035Z,40.00
2023-02-13T23:35:25.213Z,41.40
2023-02-13T23:40:26.373Z,40.60
2023-02-13T23:45:27.720Z,35.90
2023-02-13T23:50:29.907Z,42.20
2023-02-13T23:55:30.083Z,42.40
